sensor_id;sensor_type;location;lat;lon;timestamp;P1;durP1;ratioP1;P2;durP2;ratioP2
34896;SDS011;43407;51.828;-2.298;2023-01-15T00:00:59;4.13;;;1.20;;
34896;SDS011;43407;51.828;-2.298;2023-01-15T00:03:25;6.63;;;1.08;;
34896;SDS011;43407;51.828;-2.298;2023-01-15T00:05:51;7.50;;;1.17;;
34896;SDS011;43407;51.828;-2.298;2023-01-15T00:08:17;5.22;;;1.00;;
34896;SDS011;43407;51.828;-2.298;2023-01-15T00:10:42;6.75;;;1.30;;
34896;SDS011;43407;51.828;-2.298;2023-01-15T00:13:08;4.28;;;0.82;;
34896;SDS011;43407;51.828;-2.298;2023-01-15T00:15:33;2.88;;;1.00;;
34896;SDS011;43407;51.828;-2.298;2023-01-15T00:18:00;1.92;;;0.90;;
34896;SDS011;43407;51.828;-2.298;2023-01-15T00:20:25;2.60;;;0.90;;
34896;SDS011;43407;51.828;-2.298;2023-01-15T00:22:51;3.72;;;0.88;;
34896;SDS011;43407;51.828;-2.298;2023-01-15T00:25:17;2.10;;;0.70;;
34896;SDS011;43407;51.828;-2.298;2023-01-15T00:28:01;3.33;;;0.93;;
34896;SDS011;43407;51.828;-2.298;2023-01-15T00:30:26;2.80;;;0.80;;
34896;SDS011;43407;51.828;-2.298;2023-01-15T00:32:52;3.17;;;0.82;;
34896;SDS011;43407;51.828;-2.298;2023-01-15T00:35:21;1.88;;;0.80;;
34896;SDS011;43407;51.828;-2.298;2023-01-15T00:37:47;2.92;;;1.00;;
34896;SDS011;43407;51.828;-2.298;2023-01-15T00:40:14;3.20;;;0.85;;
34896;SDS011;43407;51.828;-2.298;2023-01-15T00:42:40;3.03;;;0.80;;
34896;SDS011;43407;51.828;-2.298;2023-01-15T00:45:06;3.97;;;1.02;;
34896;SDS011;43407;51.828;-2.298;2023-01-15T00:47:35;2.47;;;0.65;;
34896;SDS011;43407;51.828;-2.298;2023-01-15T00:50:02;3.03;;;1.08;;
34896;SDS011;43407;51.828;-2.298;2023-01-15T00:52:28;3.05;;;0.98;;
34896;SDS011;43407;51.828;-2.298;2023-01-15T00:54:54;4.68;;;0.90;;
34896;SDS011;43407;51.828;-2.298;2023-01-15T00:57:19;2.05;;;0.80;;
34896;SDS011;43407;51.828;-2.298;2023-01-15T00:59:45;4.05;;;1.10;;
34896;SDS011;43407;51.828;-2.298;2023-01-15T01:02:10;3.05;;;1.08;;
34896;SDS011;43407;51.828;-2.298;2023-01-15T01:04:36;3.15;;;1.00;;
34896;SDS011;43407;51.828;-2.298;2023-01-15T01:07:01;5.18;;;1.35;;
34896;SDS011;43407;51.828;-2.298;2023-01-15T01:09:27;2.40;;;1.10;;
34896;SDS011;43407;51.828;-2.298;2023-01-15T01:11:52;5.47;;;1.30;;
34896;SDS011;43407;51.828;-2.298;2023-01-15T01:14:18;7.95;;;1.38;;
34896;SDS011;43407;51.828;-2.298;2023-01-15T01:16:43;4.00;;;1.23;;
34896;SDS011;43407;51.828;-2.298;2023-01-15T01:19:13;5.70;;;1.55;;
34896;SDS011;43407;51.828;-2.298;2023-01-15T01:21:43;3.58;;;1.00;;
34896;SDS011;43407;51.828;-2.298;2023-01-15T01:24:12;3.25;;;1.20;;
34896;SDS011;43407;51.828;-2.298;2023-01-15T01:26:39;9.27;;;1.73;;
34896;SDS011;43407;51.828;-2.298;2023-01-15T01:29:05;4.30;;;1.15;;
34896;SDS011;43407;51.828;-2.298;2023-01-15T01:31:31;6.95;;;1.20;;
34896;SDS011;43407;51.828;-2.298;2023-01-15T01:33:58;3.85;;;1.15;;
34896;SDS011;43407;51.828;-2.298;2023-01-15T01:36:27;4.63;;;1.17;;
34896;SDS011;43407;51.828;-2.298;2023-01-15T01:38:55;4.35;;;1.33;;
34896;SDS011;43407;51.828;-2.298;2023-01-15T01:41:21;5.13;;;1.23;;
34896;SDS011;43407;51.828;-2.298;2023-01-15T01:44:06;4.72;;;1.70;;
34896;SDS011;43407;51.828;-2.298;2023-01-15T01:46:35;6.32;;;1.10;;
34896;SDS011;43407;51.828;-2.298;2023-01-15T01:49:10;6.78;;;1.40;;
34896;SDS011;43407;51.828;-2.298;2023-01-15T01:51:42;3.85;;;0.93;;
34896;SDS011;43407;51.828;-2.298;2023-01-15T01:54:10;7.40;;;1.47;;
34896;SDS011;43407;51.828;-2.298;2023-01-15T01:56:37;8.40;;;1.33;;
34896;SDS011;43407;51.828;-2.298;2023-01-15T01:59:03;10.77;;;1.30;;
34896;SDS011;43407;51.828;-2.298;2023-01-15T02:01:30;9.55;;;1.63;;
34896;SDS011;43407;51.828;-2.298;2023-01-15T02:03:55;3.72;;;1.20;;
34896;SDS011;43407;51.828;-2.298;2023-01-15T02:06:22;8.50;;;1.25;;
34896;SDS011;43407;51.828;-2.298;2023-01-15T02:08:48;6.80;;;1.52;;
34896;SDS011;43407;51.828;-2.298;2023-01-15T02:11:16;6.90;;;1.35;;
34896;SDS011;43407;51.828;-2.298;2023-01-15T02:16:33;7.85;;;1.63;;
34896;SDS011;43407;51.828;-2.298;2023-01-15T02:25:13;8.52;;;2.08;;
34896;SDS011;43407;51.828;-2.298;2023-01-15T02:27:43;6.60;;;1.60;;
34896;SDS011;43407;51.828;-2.298;2023-01-15T02:30:24;6.75;;;1.50;;
34896;SDS011;43407;51.828;-2.298;2023-01-15T02:32:55;11.70;;;1.70;;
34896;SDS011;43407;51.828;-2.298;2023-01-15T02:35:29;7.82;;;1.58;;
34896;SDS011;43407;51.828;-2.298;2023-01-15T02:37:59;6.88;;;1.73;;
34896;SDS011;43407;51.828;-2.298;2023-01-15T02:40:27;8.55;;;1.70;;
34896;SDS011;43407;51.828;-2.298;2023-01-15T02:42:53;8.50;;;1.75;;
34896;SDS011;43407;51.828;-2.298;2023-01-15T02:45:21;7.90;;;1.67;;
34896;SDS011;43407;51.828;-2.298;2023-01-15T02:47:51;5.93;;;1.38;;
34896;SDS011;43407;51.828;-2.298;2023-01-15T02:50:18;7.00;;;1.63;;
34896;SDS011;43407;51.828;-2.298;2023-01-15T02:52:48;9.80;;;1.77;;
34896;SDS011;43407;51.828;-2.298;2023-01-15T02:55:21;9.15;;;1.63;;
34896;SDS011;43407;51.828;-2.298;2023-01-15T02:57:49;12.95;;;2.38;;
34896;SDS011;43407;51.828;-2.298;2023-01-15T03:00:16;10.02;;;2.13;;
34896;SDS011;43407;51.828;-2.298;2023-01-15T03:02:55;5.25;;;1.10;;
34896;SDS011;43407;51.828;-2.298;2023-01-15T03:05:25;8.95;;;1.92;;
34896;SDS011;43407;51.828;-2.298;2023-01-15T03:07:57;8.38;;;1.42;;
34896;SDS011;43407;51.828;-2.298;2023-01-15T03:10:29;5.93;;;1.67;;
34896;SDS011;43407;51.828;-2.298;2023-01-15T03:13:01;7.90;;;1.67;;
34896;SDS011;43407;51.828;-2.298;2023-01-15T03:15:31;9.23;;;1.52;;
34896;SDS011;43407;51.828;-2.298;2023-01-15T03:18:27;6.32;;;1.50;;
34896;SDS011;43407;51.828;-2.298;2023-01-15T03:20:58;4.18;;;1.50;;
34896;SDS011;43407;51.828;-2.298;2023-01-15T03:23:25;9.65;;;1.65;;
34896;SDS011;43407;51.828;-2.298;2023-01-15T03:25:51;2.63;;;1.08;;
34896;SDS011;43407;51.828;-2.298;2023-01-15T03:28:19;4.47;;;1.30;;
34896;SDS011;43407;51.828;-2.298;2023-01-15T03:30:47;4.55;;;1.40;;
34896;SDS011;43407;51.828;-2.298;2023-01-15T03:33:13;4.32;;;1.30;;
34896;SDS011;43407;51.828;-2.298;2023-01-15T03:35:55;6.75;;;1.42;;
34896;SDS011;43407;51.828;-2.298;2023-01-15T03:38:26;5.75;;;1.35;;
34896;SDS011;43407;51.828;-2.298;2023-01-15T03:43:49;4.07;;;1.38;;
34896;SDS011;43407;51.828;-2.298;2023-01-15T03:59:55;6.47;;;1.27;;
34896;SDS011;43407;51.828;-2.298;2023-01-15T04:02:23;6.70;;;1.40;;
34896;SDS011;43407;51.828;-2.298;2023-01-15T04:04:49;5.80;;;1.38;;
34896;SDS011;43407;51.828;-2.298;2023-01-15T04:07:16;9.50;;;2.80;;
34896;SDS011;43407;51.828;-2.298;2023-01-15T04:09:41;7.78;;;1.52;;
34896;SDS011;43407;51.828;-2.298;2023-01-15T04:12:07;7.07;;;1.70;;
34896;SDS011;43407;51.828;-2.298;2023-01-15T04:14:33;8.13;;;2.10;;
34896;SDS011;43407;51.828;-2.298;2023-01-15T04:16:58;6.10;;;1.98;;
34896;SDS011;43407;51.828;-2.298;2023-01-15T04:19:24;8.75;;;2.05;;
34896;SDS011;43407;51.828;-2.298;2023-01-15T04:21:49;8.02;;;1.98;;
34896;SDS011;43407;51.828;-2.298;2023-01-15T04:24:15;6.40;;;1.50;;
34896;SDS011;43407;51.828;-2.298;2023-01-15T04:26:40;7.03;;;1.83;;
34896;SDS011;43407;51.828;-2.298;2023-01-15T04:29:06;7.85;;;1.40;;
34896;SDS011;43407;51.828;-2.298;2023-01-15T04:31:31;9.13;;;1.65;;
34896;SDS011;43407;51.828;-2.298;2023-01-15T04:33:57;7.03;;;1.77;;
34896;SDS011;43407;51.828;-2.298;2023-01-15T04:36:23;8.57;;;1.63;;
34896;SDS011;43407;51.828;-2.298;2023-01-15T04:38:49;9.73;;;2.30;;
34896;SDS011;43407;51.828;-2.298;2023-01-15T04:41:14;13.35;;;2.63;;
34896;SDS011;43407;51.828;-2.298;2023-01-15T04:43:58;9.60;;;1.63;;
34896;SDS011;43407;51.828;-2.298;2023-01-15T04:46:40;11.15;;;2.42;;
34896;SDS011;43407;51.828;-2.298;2023-01-15T04:49:11;9.10;;;1.92;;
34896;SDS011;43407;51.828;-2.298;2023-01-15T04:51:38;9.52;;;1.80;;
34896;SDS011;43407;51.828;-2.298;2023-01-15T04:54:04;12.20;;;2.50;;
34896;SDS011;43407;51.828;-2.298;2023-01-15T04:56:30;6.68;;;1.80;;
34896;SDS011;43407;51.828;-2.298;2023-01-15T04:58:59;9.68;;;1.63;;
34896;SDS011;43407;51.828;-2.298;2023-01-15T05:01:26;4.88;;;1.60;;
34896;SDS011;43407;51.828;-2.298;2023-01-15T05:03:51;9.02;;;2.30;;
34896;SDS011;43407;51.828;-2.298;2023-01-15T05:06:17;5.43;;;1.50;;
34896;SDS011;43407;51.828;-2.298;2023-01-15T05:08:43;4.68;;;1.52;;
34896;SDS011;43407;51.828;-2.298;2023-01-15T05:11:09;7.75;;;1.63;;
34896;SDS011;43407;51.828;-2.298;2023-01-15T05:13:34;7.55;;;1.50;;
34896;SDS011;43407;51.828;-2.298;2023-01-15T05:18:53;12.38;;;1.63;;
34896;SDS011;43407;51.828;-2.298;2023-01-15T05:21:21;8.23;;;1.38;;
34896;SDS011;43407;51.828;-2.298;2023-01-15T05:23:49;7.60;;;1.50;;
34896;SDS011;43407;51.828;-2.298;2023-01-15T05:26:15;12.45;;;2.22;;
34896;SDS011;43407;51.828;-2.298;2023-01-15T05:28:41;9.50;;;2.00;;
34896;SDS011;43407;51.828;-2.298;2023-01-15T05:31:11;13.23;;;2.30;;
34896;SDS011;43407;51.828;-2.298;2023-01-15T05:33:37;8.73;;;2.13;;
34896;SDS011;43407;51.828;-2.298;2023-01-15T05:36:04;7.95;;;2.22;;
34896;SDS011;43407;51.828;-2.298;2023-01-15T05:38:31;12.77;;;2.25;;
34896;SDS011;43407;51.828;-2.298;2023-01-15T05:40:57;12.68;;;2.47;;
34896;SDS011;43407;51.828;-2.298;2023-01-15T05:43:23;10.65;;;2.33;;
34896;SDS011;43407;51.828;-2.298;2023-01-15T05:45:48;13.45;;;1.67;;
34896;SDS011;43407;51.828;-2.298;2023-01-15T05:48:14;13.85;;;2.53;;
34896;SDS011;43407;51.828;-2.298;2023-01-15T05:50:39;7.95;;;1.83;;
34896;SDS011;43407;51.828;-2.298;2023-01-15T05:53:05;10.02;;;1.80;;
34896;SDS011;43407;51.828;-2.298;2023-01-15T05:55:31;12.93;;;1.70;;
34896;SDS011;43407;51.828;-2.298;2023-01-15T05:57:57;9.98;;;2.08;;
34896;SDS011;43407;51.828;-2.298;2023-01-15T06:00:23;9.48;;;2.05;;
34896;SDS011;43407;51.828;-2.298;2023-01-15T06:02:49;11.85;;;2.30;;
34896;SDS011;43407;51.828;-2.298;2023-01-15T06:05:15;6.28;;;1.40;;
34896;SDS011;43407;51.828;-2.298;2023-01-15T06:07:46;6.30;;;1.85;;
34896;SDS011;43407;51.828;-2.298;2023-01-15T06:10:13;6.38;;;1.75;;
34896;SDS011;43407;51.828;-2.298;2023-01-15T06:12:40;8.18;;;1.65;;
34896;SDS011;43407;51.828;-2.298;2023-01-15T06:15:06;9.30;;;1.70;;
34896;SDS011;43407;51.828;-2.298;2023-01-15T06:17:31;9.57;;;2.60;;
34896;SDS011;43407;51.828;-2.298;2023-01-15T06:19:57;9.15;;;1.63;;
34896;SDS011;43407;51.828;-2.298;2023-01-15T06:22:22;12.70;;;2.13;;
34896;SDS011;43407;51.828;-2.298;2023-01-15T06:24:48;7.32;;;1.65;;
34896;SDS011;43407;51.828;-2.298;2023-01-15T06:27:13;9.50;;;1.98;;
34896;SDS011;43407;51.828;-2.298;2023-01-15T06:29:39;7.63;;;1.80;;
34896;SDS011;43407;51.828;-2.298;2023-01-15T06:32:04;9.68;;;1.73;;
34896;SDS011;43407;51.828;-2.298;2023-01-15T06:34:30;6.30;;;1.77;;
34896;SDS011;43407;51.828;-2.298;2023-01-15T06:36:56;6.88;;;1.75;;
34896;SDS011;43407;51.828;-2.298;2023-01-15T06:39:21;9.63;;;2.10;;
34896;SDS011;43407;51.828;-2.298;2023-01-15T06:41:46;9.77;;;2.17;;
34896;SDS011;43407;51.828;-2.298;2023-01-15T06:47:25;9.65;;;2.10;;
34896;SDS011;43407;51.828;-2.298;2023-01-15T06:49:54;7.00;;;1.80;;
34896;SDS011;43407;51.828;-2.298;2023-01-15T06:52:25;14.63;;;2.10;;
34896;SDS011;43407;51.828;-2.298;2023-01-15T06:54:52;8.73;;;2.58;;
34896;SDS011;43407;51.828;-2.298;2023-01-15T06:57:17;12.85;;;2.20;;
34896;SDS011;43407;51.828;-2.298;2023-01-15T06:59:43;11.27;;;2.15;;
34896;SDS011;43407;51.828;-2.298;2023-01-15T07:02:09;8.20;;;2.25;;
34896;SDS011;43407;51.828;-2.298;2023-01-15T07:04:35;9.88;;;2.17;;
34896;SDS011;43407;51.828;-2.298;2023-01-15T07:07:01;9.55;;;1.85;;
34896;SDS011;43407;51.828;-2.298;2023-01-15T07:09:27;15.93;;;2.40;;
34896;SDS011;43407;51.828;-2.298;2023-01-15T07:11:52;12.10;;;2.22;;
34896;SDS011;43407;51.828;-2.298;2023-01-15T07:14:19;9.45;;;2.30;;
34896;SDS011;43407;51.828;-2.298;2023-01-15T07:16:46;13.15;;;2.20;;
34896;SDS011;43407;51.828;-2.298;2023-01-15T07:19:12;14.07;;;2.22;;
34896;SDS011;43407;51.828;-2.298;2023-01-15T07:21:38;9.02;;;2.00;;
34896;SDS011;43407;51.828;-2.298;2023-01-15T07:24:04;12.35;;;2.40;;
34896;SDS011;43407;51.828;-2.298;2023-01-15T07:26:30;13.45;;;2.72;;
34896;SDS011;43407;51.828;-2.298;2023-01-15T07:28:55;6.60;;;1.58;;
34896;SDS011;43407;51.828;-2.298;2023-01-15T07:31:21;9.63;;;2.13;;
34896;SDS011;43407;51.828;-2.298;2023-01-15T07:33:46;8.57;;;2.13;;
34896;SDS011;43407;51.828;-2.298;2023-01-15T07:36:11;10.13;;;2.00;;
34896;SDS011;43407;51.828;-2.298;2023-01-15T07:38:37;9.88;;;2.22;;
34896;SDS011;43407;51.828;-2.298;2023-01-15T07:41:03;5.78;;;1.75;;
34896;SDS011;43407;51.828;-2.298;2023-01-15T07:43:46;8.27;;;1.92;;
34896;SDS011;43407;51.828;-2.298;2023-01-15T07:46:30;8.85;;;1.75;;
34896;SDS011;43407;51.828;-2.298;2023-01-15T07:49:14;9.77;;;2.13;;
34896;SDS011;43407;51.828;-2.298;2023-01-15T07:51:58;9.43;;;2.10;;
34896;SDS011;43407;51.828;-2.298;2023-01-15T07:54:24;5.93;;;1.95;;
34896;SDS011;43407;51.828;-2.298;2023-01-15T07:56:50;12.23;;;2.10;;
34896;SDS011;43407;51.828;-2.298;2023-01-15T07:59:17;7.63;;;1.67;;
34896;SDS011;43407;51.828;-2.298;2023-01-15T08:01:42;12.52;;;2.17;;
34896;SDS011;43407;51.828;-2.298;2023-01-15T08:04:08;10.63;;;2.10;;
34896;SDS011;43407;51.828;-2.298;2023-01-15T08:06:34;12.02;;;2.60;;
34896;SDS011;43407;51.828;-2.298;2023-01-15T08:09:00;8.07;;;1.85;;
34896;SDS011;43407;51.828;-2.298;2023-01-15T08:11:25;7.70;;;1.42;;
34896;SDS011;43407;51.828;-2.298;2023-01-15T08:14:09;7.50;;;1.70;;
34896;SDS011;43407;51.828;-2.298;2023-01-15T08:16:53;10.10;;;1.75;;
34896;SDS011;43407;51.828;-2.298;2023-01-15T08:19:19;8.32;;;1.85;;
34896;SDS011;43407;51.828;-2.298;2023-01-15T08:21:44;7.00;;;1.85;;
34896;SDS011;43407;51.828;-2.298;2023-01-15T08:24:10;10.40;;;1.80;;
34896;SDS011;43407;51.828;-2.298;2023-01-15T08:26:35;7.40;;;1.65;;
34896;SDS011;43407;51.828;-2.298;2023-01-15T08:29:01;6.00;;;1.58;;
34896;SDS011;43407;51.828;-2.298;2023-01-15T08:31:26;10.85;;;2.05;;
34896;SDS011;43407;51.828;-2.298;2023-01-15T08:33:52;9.13;;;1.73;;
34896;SDS011;43407;51.828;-2.298;2023-01-15T08:36:17;11.82;;;2.22;;
34896;SDS011;43407;51.828;-2.298;2023-01-15T08:38:43;11.82;;;1.75;;
34896;SDS011;43407;51.828;-2.298;2023-01-15T08:41:09;9.70;;;2.00;;
34896;SDS011;43407;51.828;-2.298;2023-01-15T08:43:34;12.40;;;2.08;;
34896;SDS011;43407;51.828;-2.298;2023-01-15T08:46:00;8.93;;;2.05;;
34896;SDS011;43407;51.828;-2.298;2023-01-15T08:48:28;13.93;;;2.30;;
34896;SDS011;43407;51.828;-2.298;2023-01-15T08:50:54;10.77;;;2.13;;
34896;SDS011;43407;51.828;-2.298;2023-01-15T08:53:20;9.25;;;1.55;;
34896;SDS011;43407;51.828;-2.298;2023-01-15T08:55:46;7.63;;;1.90;;
34896;SDS011;43407;51.828;-2.298;2023-01-15T08:58:12;12.38;;;1.92;;
34896;SDS011;43407;51.828;-2.298;2023-01-15T09:00:38;10.95;;;1.90;;
34896;SDS011;43407;51.828;-2.298;2023-01-15T09:03:04;10.73;;;1.98;;
34896;SDS011;43407;51.828;-2.298;2023-01-15T09:05:29;10.27;;;1.92;;
34896;SDS011;43407;51.828;-2.298;2023-01-15T09:07:55;12.98;;;1.75;;
34896;SDS011;43407;51.828;-2.298;2023-01-15T09:10:21;7.28;;;1.80;;
34896;SDS011;43407;51.828;-2.298;2023-01-15T09:12:47;7.57;;;1.65;;
34896;SDS011;43407;51.828;-2.298;2023-01-15T09:15:12;12.52;;;2.80;;
34896;SDS011;43407;51.828;-2.298;2023-01-15T09:17:38;7.35;;;1.63;;
34896;SDS011;43407;51.828;-2.298;2023-01-15T09:20:07;7.22;;;2.08;;
34896;SDS011;43407;51.828;-2.298;2023-01-15T09:22:33;9.60;;;2.10;;
34896;SDS011;43407;51.828;-2.298;2023-01-15T09:24:59;10.90;;;2.35;;
34896;SDS011;43407;51.828;-2.298;2023-01-15T09:27:25;12.18;;;2.03;;
34896;SDS011;43407;51.828;-2.298;2023-01-15T09:29:52;8.40;;;1.98;;
34896;SDS011;43407;51.828;-2.298;2023-01-15T09:32:17;9.88;;;2.08;;
34896;SDS011;43407;51.828;-2.298;2023-01-15T09:34:43;9.52;;;2.10;;
34896;SDS011;43407;51.828;-2.298;2023-01-15T09:37:08;8.90;;;2.00;;
34896;SDS011;43407;51.828;-2.298;2023-01-15T09:39:36;7.68;;;1.65;;
34896;SDS011;43407;51.828;-2.298;2023-01-15T09:56:04;6.32;;;1.63;;
34896;SDS011;43407;51.828;-2.298;2023-01-15T09:58:39;9.77;;;2.22;;
34896;SDS011;43407;51.828;-2.298;2023-01-15T10:01:05;11.35;;;2.40;;
34896;SDS011;43407;51.828;-2.298;2023-01-15T10:06:33;8.13;;;1.85;;
34896;SDS011;43407;51.828;-2.298;2023-01-15T10:09:10;9.45;;;1.80;;
34896;SDS011;43407;51.828;-2.298;2023-01-15T10:11:51;9.45;;;2.03;;
34896;SDS011;43407;51.828;-2.298;2023-01-15T10:14:59;9.57;;;2.17;;
34896;SDS011;43407;51.828;-2.298;2023-01-15T10:17:27;8.32;;;2.03;;
34896;SDS011;43407;51.828;-2.298;2023-01-15T10:19:58;14.68;;;2.58;;
34896;SDS011;43407;51.828;-2.298;2023-01-15T10:22:31;11.95;;;2.05;;
34896;SDS011;43407;51.828;-2.298;2023-01-15T10:25:23;14.15;;;2.35;;
34896;SDS011;43407;51.828;-2.298;2023-01-15T10:27:52;9.50;;;1.90;;
34896;SDS011;43407;51.828;-2.298;2023-01-15T10:30:31;10.40;;;2.35;;
34896;SDS011;43407;51.828;-2.298;2023-01-15T10:34:04;13.75;;;2.42;;
34896;SDS011;43407;51.828;-2.298;2023-01-15T10:36:49;8.57;;;1.90;;
34896;SDS011;43407;51.828;-2.298;2023-01-15T10:39:31;12.05;;;2.20;;
34896;SDS011;43407;51.828;-2.298;2023-01-15T10:45:12;10.65;;;2.45;;
34896;SDS011;43407;51.828;-2.298;2023-01-15T10:47:41;10.45;;;2.45;;
34896;SDS011;43407;51.828;-2.298;2023-01-15T10:50:26;7.85;;;2.25;;
34896;SDS011;43407;51.828;-2.298;2023-01-15T10:53:12;14.15;;;2.10;;
34896;SDS011;43407;51.828;-2.298;2023-01-15T10:56:00;10.80;;;2.30;;
34896;SDS011;43407;51.828;-2.298;2023-01-15T10:58:36;8.15;;;2.10;;
34896;SDS011;43407;51.828;-2.298;2023-01-15T11:01:04;10.80;;;2.50;;
34896;SDS011;43407;51.828;-2.298;2023-01-15T11:03:36;11.35;;;2.78;;
34896;SDS011;43407;51.828;-2.298;2023-01-15T11:06:03;8.80;;;2.20;;
34896;SDS011;43407;51.828;-2.298;2023-01-15T11:08:29;13.02;;;2.42;;
34896;SDS011;43407;51.828;-2.298;2023-01-15T11:10:56;9.07;;;2.58;;
34896;SDS011;43407;51.828;-2.298;2023-01-15T11:13:24;12.90;;;2.10;;
34896;SDS011;43407;51.828;-2.298;2023-01-15T11:16:14;11.00;;;2.10;;
34896;SDS011;43407;51.828;-2.298;2023-01-15T11:19:05;11.30;;;2.33;;
34896;SDS011;43407;51.828;-2.298;2023-01-15T11:21:53;7.13;;;1.80;;
34896;SDS011;43407;51.828;-2.298;2023-01-15T11:24:18;11.77;;;3.08;;
34896;SDS011;43407;51.828;-2.298;2023-01-15T11:26:49;7.25;;;2.17;;
34896;SDS011;43407;51.828;-2.298;2023-01-15T11:29:28;8.15;;;2.00;;
34896;SDS011;43407;51.828;-2.298;2023-01-15T11:31:57;11.88;;;2.33;;
34896;SDS011;43407;51.828;-2.298;2023-01-15T11:34:22;9.32;;;2.38;;
34896;SDS011;43407;51.828;-2.298;2023-01-15T11:36:48;9.43;;;2.28;;
34896;SDS011;43407;51.828;-2.298;2023-01-15T11:39:26;6.75;;;1.95;;
34896;SDS011;43407;51.828;-2.298;2023-01-15T11:42:02;5.82;;;2.00;;
34896;SDS011;43407;51.828;-2.298;2023-01-15T11:44:51;10.30;;;2.40;;
34896;SDS011;43407;51.828;-2.298;2023-01-15T11:47:36;10.30;;;2.20;;
34896;SDS011;43407;51.828;-2.298;2023-01-15T11:50:20;6.47;;;1.98;;
34896;SDS011;43407;51.828;-2.298;2023-01-15T11:53:05;9.05;;;2.20;;
34896;SDS011;43407;51.828;-2.298;2023-01-15T11:55:34;9.85;;;2.25;;
34896;SDS011;43407;51.828;-2.298;2023-01-15T11:57:59;8.73;;;1.55;;
34896;SDS011;43407;51.828;-2.298;2023-01-15T12:00:33;8.10;;;2.40;;
34896;SDS011;43407;51.828;-2.298;2023-01-15T12:03:03;9.95;;;2.00;;
34896;SDS011;43407;51.828;-2.298;2023-01-15T12:05:33;7.07;;;1.90;;
34896;SDS011;43407;51.828;-2.298;2023-01-15T12:08:00;5.10;;;1.88;;
34896;SDS011;43407;51.828;-2.298;2023-01-15T12:13:23;9.00;;;2.42;;
34896;SDS011;43407;51.828;-2.298;2023-01-15T12:16:12;5.95;;;2.28;;
34896;SDS011;43407;51.828;-2.298;2023-01-15T12:24:11;10.93;;;2.33;;
34896;SDS011;43407;51.828;-2.298;2023-01-15T12:29:45;9.23;;;1.95;;
34896;SDS011;43407;51.828;-2.298;2023-01-15T12:32:16;6.45;;;1.85;;
34896;SDS011;43407;51.828;-2.298;2023-01-15T12:37:19;9.18;;;2.30;;
34896;SDS011;43407;51.828;-2.298;2023-01-15T12:39:53;10.35;;;2.22;;
34896;SDS011;43407;51.828;-2.298;2023-01-15T12:42:22;11.05;;;2.30;;
34896;SDS011;43407;51.828;-2.298;2023-01-15T12:45:26;8.85;;;2.45;;
34896;SDS011;43407;51.828;-2.298;2023-01-15T12:50:45;9.57;;;2.00;;
34896;SDS011;43407;51.828;-2.298;2023-01-15T12:58:44;8.25;;;2.20;;
34896;SDS011;43407;51.828;-2.298;2023-01-15T13:06:55;9.93;;;2.20;;
34896;SDS011;43407;51.828;-2.298;2023-01-15T13:12:12;6.53;;;1.65;;
34896;SDS011;43407;51.828;-2.298;2023-01-15T13:14:39;7.47;;;1.92;;
34896;SDS011;43407;51.828;-2.298;2023-01-15T13:17:10;7.95;;;2.70;;
34896;SDS011;43407;51.828;-2.298;2023-01-15T13:23:06;4.78;;;1.42;;
34896;SDS011;43407;51.828;-2.298;2023-01-15T13:26:02;10.25;;;1.67;;
34896;SDS011;43407;51.828;-2.298;2023-01-15T13:28:59;8.80;;;2.05;;
34896;SDS011;43407;51.828;-2.298;2023-01-15T13:31:59;5.15;;;2.25;;
34896;SDS011;43407;51.828;-2.298;2023-01-15T13:39:50;11.88;;;2.40;;
34896;SDS011;43407;51.828;-2.298;2023-01-15T13:42:22;12.02;;;2.60;;
34896;SDS011;43407;51.828;-2.298;2023-01-15T13:45:02;10.20;;;2.20;;
34896;SDS011;43407;51.828;-2.298;2023-01-15T13:47:30;9.00;;;2.25;;
34896;SDS011;43407;51.828;-2.298;2023-01-15T13:49:58;8.57;;;1.90;;
34896;SDS011;43407;51.828;-2.298;2023-01-15T13:52:32;9.80;;;2.22;;
34896;SDS011;43407;51.828;-2.298;2023-01-15T13:55:00;9.43;;;2.00;;
34896;SDS011;43407;51.828;-2.298;2023-01-15T13:57:34;9.60;;;2.47;;
34896;SDS011;43407;51.828;-2.298;2023-01-15T14:00:03;10.98;;;1.90;;
34896;SDS011;43407;51.828;-2.298;2023-01-15T14:02:31;11.07;;;2.20;;
34896;SDS011;43407;51.828;-2.298;2023-01-15T14:04:58;8.02;;;1.73;;
34896;SDS011;43407;51.828;-2.298;2023-01-15T14:07:31;7.65;;;1.92;;
34896;SDS011;43407;51.828;-2.298;2023-01-15T14:16:05;6.88;;;2.75;;
34896;SDS011;43407;51.828;-2.298;2023-01-15T14:18:58;11.55;;;2.10;;
34896;SDS011;43407;51.828;-2.298;2023-01-15T14:29:22;7.97;;;1.73;;
34896;SDS011;43407;51.828;-2.298;2023-01-15T14:34:57;10.65;;;1.95;;
34896;SDS011;43407;51.828;-2.298;2023-01-15T14:37:25;5.28;;;1.80;;
34896;SDS011;43407;51.828;-2.298;2023-01-15T14:39:55;10.02;;;1.98;;
34896;SDS011;43407;51.828;-2.298;2023-01-15T14:42:24;7.78;;;2.30;;
34896;SDS011;43407;51.828;-2.298;2023-01-15T14:47:42;9.07;;;1.88;;
34896;SDS011;43407;51.828;-2.298;2023-01-15T14:53:00;10.75;;;1.83;;
34896;SDS011;43407;51.828;-2.298;2023-01-15T14:58:45;6.07;;;1.95;;
34896;SDS011;43407;51.828;-2.298;2023-01-15T15:03:59;4.88;;;1.63;;
34896;SDS011;43407;51.828;-2.298;2023-01-15T15:06:25;5.13;;;1.80;;
34896;SDS011;43407;51.828;-2.298;2023-01-15T15:08:53;6.35;;;1.65;;
34896;SDS011;43407;51.828;-2.298;2023-01-15T15:11:37;6.83;;;2.10;;
34896;SDS011;43407;51.828;-2.298;2023-01-15T15:14:26;5.82;;;1.77;;
34896;SDS011;43407;51.828;-2.298;2023-01-15T15:16:53;7.70;;;1.83;;
34896;SDS011;43407;51.828;-2.298;2023-01-15T15:19:55;6.47;;;2.08;;
34896;SDS011;43407;51.828;-2.298;2023-01-15T15:22:14;6.10;;;1.73;;
34896;SDS011;43407;51.828;-2.298;2023-01-15T15:24:43;9.65;;;2.00;;
34896;SDS011;43407;51.828;-2.298;2023-01-15T15:27:14;7.57;;;2.08;;
34896;SDS011;43407;51.828;-2.298;2023-01-15T15:29:42;6.18;;;1.60;;
34896;SDS011;43407;51.828;-2.298;2023-01-15T15:32:10;7.82;;;1.98;;
34896;SDS011;43407;51.828;-2.298;2023-01-15T15:34:39;5.55;;;1.90;;
34896;SDS011;43407;51.828;-2.298;2023-01-15T15:37:13;7.35;;;2.00;;
34896;SDS011;43407;51.828;-2.298;2023-01-15T15:42:24;4.68;;;1.70;;
34896;SDS011;43407;51.828;-2.298;2023-01-15T15:45:19;5.07;;;2.00;;
34896;SDS011;43407;51.828;-2.298;2023-01-15T15:48:12;4.40;;;1.77;;
34896;SDS011;43407;51.828;-2.298;2023-01-15T15:50:58;7.15;;;1.80;;
34896;SDS011;43407;51.828;-2.298;2023-01-15T15:53:24;5.32;;;1.88;;
34896;SDS011;43407;51.828;-2.298;2023-01-15T15:55:50;5.22;;;1.40;;
34896;SDS011;43407;51.828;-2.298;2023-01-15T15:58:21;5.95;;;2.05;;
34896;SDS011;43407;51.828;-2.298;2023-01-15T16:00:58;7.15;;;1.40;;
34896;SDS011;43407;51.828;-2.298;2023-01-15T16:03:25;6.70;;;1.92;;
34896;SDS011;43407;51.828;-2.298;2023-01-15T16:05:59;7.63;;;1.65;;
34896;SDS011;43407;51.828;-2.298;2023-01-15T16:08:26;4.43;;;1.63;;
34896;SDS011;43407;51.828;-2.298;2023-01-15T16:10:54;8.40;;;1.90;;
34896;SDS011;43407;51.828;-2.298;2023-01-15T16:13:43;6.88;;;1.70;;
34896;SDS011;43407;51.828;-2.298;2023-01-15T16:16:11;6.88;;;1.85;;
34896;SDS011;43407;51.828;-2.298;2023-01-15T16:18:41;5.10;;;1.70;;
34896;SDS011;43407;51.828;-2.298;2023-01-15T16:21:09;5.75;;;1.50;;
34896;SDS011;43407;51.828;-2.298;2023-01-15T16:23:36;6.00;;;2.08;;
34896;SDS011;43407;51.828;-2.298;2023-01-15T16:28:43;7.97;;;1.55;;
34896;SDS011;43407;51.828;-2.298;2023-01-15T16:31:11;6.65;;;1.73;;
34896;SDS011;43407;51.828;-2.298;2023-01-15T16:33:38;5.15;;;1.35;;
34896;SDS011;43407;51.828;-2.298;2023-01-15T16:36:04;3.47;;;1.35;;
34896;SDS011;43407;51.828;-2.298;2023-01-15T16:38:32;3.42;;;1.48;;
34896;SDS011;43407;51.828;-2.298;2023-01-15T16:41:03;3.67;;;1.00;;
34896;SDS011;43407;51.828;-2.298;2023-01-15T16:43:29;3.35;;;1.38;;
34896;SDS011;43407;51.828;-2.298;2023-01-15T16:46:05;8.05;;;1.20;;
34896;SDS011;43407;51.828;-2.298;2023-01-15T16:48:39;1.67;;;1.30;;
34896;SDS011;43407;51.828;-2.298;2023-01-15T16:53:51;3.00;;;1.00;;
34896;SDS011;43407;51.828;-2.298;2023-01-15T16:59:12;4.25;;;1.30;;